sensor_id;sensor_type;location;lat;lon;timestamp;temperature;humidity
13572;DHT22;6857;53.484;10.216;2024-01-07T00:02:25;0.00;99.90
13572;DHT22;6857;53.484;10.216;2024-01-07T00:04:50;0.00;99.90
13572;DHT22;6857;53.484;10.216;2024-01-07T00:07:16;0.00;99.90
13572;DHT22;6857;53.484;10.216;2024-01-07T00:09:42;0.00;99.90
13572;DHT22;6857;53.484;10.216;2024-01-07T00:12:07;-0.10;99.90
13572;DHT22;6857;53.484;10.216;2024-01-07T00:14:33;0.00;99.90
13572;DHT22;6857;53.484;10.216;2024-01-07T00:16:59;-0.10;99.90
13572;DHT22;6857;53.484;10.216;2024-01-07T00:19:24;-0.10;99.90
13572;DHT22;6857;53.484;10.216;2024-01-07T00:21:50;-0.10;99.90
13572;DHT22;6857;53.484;10.216;2024-01-07T00:24:16;-0.20;99.90
13572;DHT22;6857;53.484;10.216;2024-01-07T00:26:41;-0.20;99.90
13572;DHT22;6857;53.484;10.216;2024-01-07T00:29:07;-0.20;99.90
13572;DHT22;6857;53.484;10.216;2024-01-07T00:31:32;-0.20;99.90
13572;DHT22;6857;53.484;10.216;2024-01-07T00:33:58;-0.20;99.90
13572;DHT22;6857;53.484;10.216;2024-01-07T00:36:23;-0.20;99.90
13572;DHT22;6857;53.484;10.216;2024-01-07T00:38:49;-0.20;99.90
13572;DHT22;6857;53.484;10.216;2024-01-07T00:41:15;-0.20;99.90
13572;DHT22;6857;53.484;10.216;2024-01-07T00:43:40;-0.10;99.90
13572;DHT22;6857;53.484;10.216;2024-01-07T00:46:06;-0.20;99.90
13572;DHT22;6857;53.484;10.216;2024-01-07T00:48:31;-0.20;99.90
13572;DHT22;6857;53.484;10.216;2024-01-07T00:50:57;-0.20;99.90
13572;DHT22;6857;53.484;10.216;2024-01-07T00:53:23;-0.20;99.90
13572;DHT22;6857;53.484;10.216;2024-01-07T00:55:48;-0.20;99.90
13572;DHT22;6857;53.484;10.216;2024-01-07T00:58:14;-0.20;99.90
13572;DHT22;6857;53.484;10.216;2024-01-07T01:00:39;-0.30;99.90
13572;DHT22;6857;53.484;10.216;2024-01-07T01:03:05;-0.30;99.90
13572;DHT22;6857;53.484;10.216;2024-01-07T01:05:30;-0.30;99.90
13572;DHT22;6857;53.484;10.216;2024-01-07T01:07:56;-0.30;99.90
13572;DHT22;6857;53.484;10.216;2024-01-07T01:10:21;-0.30;99.90
13572;DHT22;6857;53.484;10.216;2024-01-07T01:12:47;-0.30;99.90
13572;DHT22;6857;53.484;10.216;2024-01-07T01:15:13;-0.40;99.90
13572;DHT22;6857;53.484;10.216;2024-01-07T01:17:42;-0.50;99.90
13572;DHT22;6857;53.484;10.216;2024-01-07T01:20:07;-0.40;99.90
13572;DHT22;6857;53.484;10.216;2024-01-07T01:22:33;-0.50;99.90
13572;DHT22;6857;53.484;10.216;2024-01-07T01:24:59;-0.50;99.90
13572;DHT22;6857;53.484;10.216;2024-01-07T01:27:25;-0.50;99.90
13572;DHT22;6857;53.484;10.216;2024-01-07T01:29:50;-0.60;99.90
13572;DHT22;6857;53.484;10.216;2024-01-07T01:32:16;-0.60;99.90
13572;DHT22;6857;53.484;10.216;2024-01-07T01:34:42;-0.60;99.90
13572;DHT22;6857;53.484;10.216;2024-01-07T01:37:08;-0.60;99.90
13572;DHT22;6857;53.484;10.216;2024-01-07T01:39:34;-0.60;99.90
13572;DHT22;6857;53.484;10.216;2024-01-07T01:42:00;-0.60;99.90
13572;DHT22;6857;53.484;10.216;2024-01-07T01:44:25;-0.60;99.90
13572;DHT22;6857;53.484;10.216;2024-01-07T01:46:53;-0.70;99.90
13572;DHT22;6857;53.484;10.216;2024-01-07T01:49:20;-0.70;99.90
13572;DHT22;6857;53.484;10.216;2024-01-07T01:51:45;-0.70;99.90
13572;DHT22;6857;53.484;10.216;2024-01-07T01:54:11;-0.70;99.90
13572;DHT22;6857;53.484;10.216;2024-01-07T01:56:37;-0.70;99.90
13572;DHT22;6857;53.484;10.216;2024-01-07T01:59:03;-0.70;99.90
13572;DHT22;6857;53.484;10.216;2024-01-07T02:01:29;-0.70;99.90
13572;DHT22;6857;53.484;10.216;2024-01-07T02:03:56;-0.70;99.90
13572;DHT22;6857;53.484;10.216;2024-01-07T02:06:22;-0.60;99.90
13572;DHT22;6857;53.484;10.216;2024-01-07T02:08:48;-0.70;99.90
13572;DHT22;6857;53.484;10.216;2024-01-07T02:11:19;-0.70;99.90
13572;DHT22;6857;53.484;10.216;2024-01-07T02:13:45;-0.60;99.90
13572;DHT22;6857;53.484;10.216;2024-01-07T02:16:11;-0.60;99.90
13572;DHT22;6857;53.484;10.216;2024-01-07T02:18:41;-0.60;99.90
13572;DHT22;6857;53.484;10.216;2024-01-07T02:21:07;-0.60;99.90
13572;DHT22;6857;53.484;10.216;2024-01-07T02:23:33;-0.60;99.90
13572;DHT22;6857;53.484;10.216;2024-01-07T02:25:58;-0.60;99.90
13572;DHT22;6857;53.484;10.216;2024-01-07T02:28:24;-0.60;99.90
13572;DHT22;6857;53.484;10.216;2024-01-07T02:30:50;-0.70;99.90
13572;DHT22;6857;53.484;10.216;2024-01-07T02:33:15;-0.70;99.90
13572;DHT22;6857;53.484;10.216;2024-01-07T02:35:41;-0.60;99.90
13572;DHT22;6857;53.484;10.216;2024-01-07T02:38:06;-0.70;99.90
13572;DHT22;6857;53.484;10.216;2024-01-07T02:40:32;-0.60;99.90
13572;DHT22;6857;53.484;10.216;2024-01-07T02:42:57;-0.70;99.90
13572;DHT22;6857;53.484;10.216;2024-01-07T02:45:24;-0.70;99.90
13572;DHT22;6857;53.484;10.216;2024-01-07T02:47:49;-0.70;99.90
13572;DHT22;6857;53.484;10.216;2024-01-07T02:50:15;-0.70;99.90
13572;DHT22;6857;53.484;10.216;2024-01-07T02:52:41;-0.70;99.90
13572;DHT22;6857;53.484;10.216;2024-01-07T02:55:08;-0.70;99.90
13572;DHT22;6857;53.484;10.216;2024-01-07T02:57:34;-0.70;99.90
13572;DHT22;6857;53.484;10.216;2024-01-07T02:59:59;-0.60;99.90
13572;DHT22;6857;53.484;10.216;2024-01-07T03:02:25;-0.70;99.90
13572;DHT22;6857;53.484;10.216;2024-01-07T03:04:51;-0.60;99.90
13572;DHT22;6857;53.484;10.216;2024-01-07T03:07:16;-0.60;99.90
13572;DHT22;6857;53.484;10.216;2024-01-07T03:09:42;-0.60;99.90
13572;DHT22;6857;53.484;10.216;2024-01-07T03:12:07;-0.60;99.90
13572;DHT22;6857;53.484;10.216;2024-01-07T03:14:33;-0.60;99.90
13572;DHT22;6857;53.484;10.216;2024-01-07T03:16:58;-0.50;99.90
13572;DHT22;6857;53.484;10.216;2024-01-07T03:19:24;-0.50;99.90
13572;DHT22;6857;53.484;10.216;2024-01-07T03:21:50;-0.50;99.90
13572;DHT22;6857;53.484;10.216;2024-01-07T03:24:15;-0.50;99.90
13572;DHT22;6857;53.484;10.216;2024-01-07T03:26:41;-0.50;99.90
13572;DHT22;6857;53.484;10.216;2024-01-07T03:29:06;-0.40;99.90
13572;DHT22;6857;53.484;10.216;2024-01-07T03:31:33;-0.40;99.90
13572;DHT22;6857;53.484;10.216;2024-01-07T03:34:01;-0.40;99.90
13572;DHT22;6857;53.484;10.216;2024-01-07T03:36:26;-0.40;99.90
13572;DHT22;6857;53.484;10.216;2024-01-07T03:38:52;-0.40;99.90
13572;DHT22;6857;53.484;10.216;2024-01-07T03:41:20;-0.30;99.90
13572;DHT22;6857;53.484;10.216;2024-01-07T03:43:49;-0.30;99.90
13572;DHT22;6857;53.484;10.216;2024-01-07T03:46:15;-0.30;99.90
13572;DHT22;6857;53.484;10.216;2024-01-07T03:48:42;-0.30;99.90
13572;DHT22;6857;53.484;10.216;2024-01-07T03:51:07;-0.30;99.90
13572;DHT22;6857;53.484;10.216;2024-01-07T03:53:33;-0.30;99.90
13572;DHT22;6857;53.484;10.216;2024-01-07T03:55:59;-0.30;99.90
13572;DHT22;6857;53.484;10.216;2024-01-07T03:58:24;-0.30;99.90
13572;DHT22;6857;53.484;10.216;2024-01-07T04:00:50;-0.30;99.90
13572;DHT22;6857;53.484;10.216;2024-01-07T04:03:15;-0.30;99.90
13572;DHT22;6857;53.484;10.216;2024-01-07T04:05:41;-0.30;99.90
13572;DHT22;6857;53.484;10.216;2024-01-07T04:08:09;-0.30;99.90
13572;DHT22;6857;53.484;10.216;2024-01-07T04:10:36;-0.30;99.90
13572;DHT22;6857;53.484;10.216;2024-01-07T04:13:01;-0.30;99.90
13572;DHT22;6857;53.484;10.216;2024-01-07T04:15:27;-0.30;99.90
13572;DHT22;6857;53.484;10.216;2024-01-07T04:17:52;-0.20;99.90
13572;DHT22;6857;53.484;10.216;2024-01-07T04:20:18;-0.20;99.90
13572;DHT22;6857;53.484;10.216;2024-01-07T04:22:43;-0.20;99.90
13572;DHT22;6857;53.484;10.216;2024-01-07T04:25:09;-0.20;99.90
13572;DHT22;6857;53.484;10.216;2024-01-07T04:27:36;-0.20;99.90
13572;DHT22;6857;53.484;10.216;2024-01-07T04:30:02;-0.20;99.90
13572;DHT22;6857;53.484;10.216;2024-01-07T04:32:28;-0.20;99.90
13572;DHT22;6857;53.484;10.216;2024-01-07T04:34:54;-0.20;99.90
13572;DHT22;6857;53.484;10.216;2024-01-07T04:37:20;-0.20;99.90
13572;DHT22;6857;53.484;10.216;2024-01-07T04:39:46;-0.20;99.90
13572;DHT22;6857;53.484;10.216;2024-01-07T04:42:11;-0.10;99.90
13572;DHT22;6857;53.484;10.216;2024-01-07T04:44:37;-0.10;99.90
13572;DHT22;6857;53.484;10.216;2024-01-07T04:47:02;-0.20;99.90
13572;DHT22;6857;53.484;10.216;2024-01-07T04:49:28;-0.10;99.90
13572;DHT22;6857;53.484;10.216;2024-01-07T04:51:53;-0.10;99.90
13572;DHT22;6857;53.484;10.216;2024-01-07T04:54:19;-0.10;99.90
13572;DHT22;6857;53.484;10.216;2024-01-07T04:56:44;-0.10;99.90
13572;DHT22;6857;53.484;10.216;2024-01-07T04:59:10;-0.10;99.90
13572;DHT22;6857;53.484;10.216;2024-01-07T05:01:35;-0.10;99.90
13572;DHT22;6857;53.484;10.216;2024-01-07T05:04:02;-0.10;99.90
13572;DHT22;6857;53.484;10.216;2024-01-07T05:06:27;0.00;99.90
13572;DHT22;6857;53.484;10.216;2024-01-07T05:08:53;-0.10;99.90
13572;DHT22;6857;53.484;10.216;2024-01-07T05:11:19;0.00;99.90
13572;DHT22;6857;53.484;10.216;2024-01-07T05:13:44;0.00;99.90
13572;DHT22;6857;53.484;10.216;2024-01-07T05:16:18;0.00;99.90
13572;DHT22;6857;53.484;10.216;2024-01-07T05:18:44;0.00;99.90
13572;DHT22;6857;53.484;10.216;2024-01-07T05:21:14;0.00;99.90
13572;DHT22;6857;53.484;10.216;2024-01-07T05:23:40;0.00;99.90
13572;DHT22;6857;53.484;10.216;2024-01-07T05:26:05;0.00;99.90
13572;DHT22;6857;53.484;10.216;2024-01-07T05:28:31;0.10;99.90
13572;DHT22;6857;53.484;10.216;2024-01-07T05:30:56;0.10;99.90
13572;DHT22;6857;53.484;10.216;2024-01-07T05:33:22;0.10;99.90
13572;DHT22;6857;53.484;10.216;2024-01-07T05:35:47;0.10;99.90
13572;DHT22;6857;53.484;10.216;2024-01-07T05:38:13;0.10;99.90
13572;DHT22;6857;53.484;10.216;2024-01-07T05:40:38;0.10;99.90
13572;DHT22;6857;53.484;10.216;2024-01-07T05:43:04;0.10;99.90
13572;DHT22;6857;53.484;10.216;2024-01-07T05:45:29;0.10;99.90
13572;DHT22;6857;53.484;10.216;2024-01-07T05:47:55;0.10;99.90
13572;DHT22;6857;53.484;10.216;2024-01-07T05:50:20;0.20;99.90
13572;DHT22;6857;53.484;10.216;2024-01-07T05:52:46;0.20;99.90
13572;DHT22;6857;53.484;10.216;2024-01-07T05:55:12;0.20;99.90
13572;DHT22;6857;53.484;10.216;2024-01-07T05:57:37;0.20;99.90
13572;DHT22;6857;53.484;10.216;2024-01-07T06:00:03;0.20;99.90
13572;DHT22;6857;53.484;10.216;2024-01-07T06:02:29;0.20;99.90
13572;DHT22;6857;53.484;10.216;2024-01-07T06:04:54;0.30;99.90
13572;DHT22;6857;53.484;10.216;2024-01-07T06:07:20;0.30;99.90
13572;DHT22;6857;53.484;10.216;2024-01-07T06:09:45;0.30;99.90
13572;DHT22;6857;53.484;10.216;2024-01-07T06:12:11;0.20;99.90
13572;DHT22;6857;53.484;10.216;2024-01-07T06:14:36;0.20;99.90
13572;DHT22;6857;53.484;10.216;2024-01-07T06:17:02;0.30;99.90
13572;DHT22;6857;53.484;10.216;2024-01-07T06:19:27;0.30;99.90
13572;DHT22;6857;53.484;10.216;2024-01-07T06:21:53;0.30;99.90
13572;DHT22;6857;53.484;10.216;2024-01-07T06:24:18;0.30;99.90
13572;DHT22;6857;53.484;10.216;2024-01-07T06:26:44;0.30;99.90
13572;DHT22;6857;53.484;10.216;2024-01-07T06:29:09;0.30;99.90
13572;DHT22;6857;53.484;10.216;2024-01-07T06:31:35;0.30;99.90
13572;DHT22;6857;53.484;10.216;2024-01-07T06:34:00;0.30;99.90
13572;DHT22;6857;53.484;10.216;2024-01-07T06:36:26;0.30;99.90
13572;DHT22;6857;53.484;10.216;2024-01-07T06:38:52;0.30;99.90
13572;DHT22;6857;53.484;10.216;2024-01-07T06:41:19;0.30;99.90
13572;DHT22;6857;53.484;10.216;2024-01-07T06:43:44;0.30;99.90
13572;DHT22;6857;53.484;10.216;2024-01-07T06:46:10;0.30;99.90
13572;DHT22;6857;53.484;10.216;2024-01-07T06:48:35;0.30;99.90
13572;DHT22;6857;53.484;10.216;2024-01-07T06:51:01;0.30;99.90
13572;DHT22;6857;53.484;10.216;2024-01-07T06:53:26;0.40;99.90
13572;DHT22;6857;53.484;10.216;2024-01-07T06:55:52;0.40;99.90
13572;DHT22;6857;53.484;10.216;2024-01-07T06:58:17;0.30;99.90
13572;DHT22;6857;53.484;10.216;2024-01-07T07:00:44;0.30;99.90
13572;DHT22;6857;53.484;10.216;2024-01-07T07:03:09;0.30;99.90
13572;DHT22;6857;53.484;10.216;2024-01-07T07:05:36;0.40;99.90
13572;DHT22;6857;53.484;10.216;2024-01-07T07:08:01;0.40;99.90
13572;DHT22;6857;53.484;10.216;2024-01-07T07:10:27;0.40;99.90
13572;DHT22;6857;53.484;10.216;2024-01-07T07:12:53;0.40;99.90
13572;DHT22;6857;53.484;10.216;2024-01-07T07:15:18;0.50;99.90
13572;DHT22;6857;53.484;10.216;2024-01-07T07:17:44;0.50;99.90
13572;DHT22;6857;53.484;10.216;2024-01-07T07:20:10;0.50;99.90
13572;DHT22;6857;53.484;10.216;2024-01-07T07:22:36;0.50;99.90
13572;DHT22;6857;53.484;10.216;2024-01-07T07:25:01;0.50;99.90
13572;DHT22;6857;53.484;10.216;2024-01-07T07:27:27;0.50;99.90
13572;DHT22;6857;53.484;10.216;2024-01-07T07:29:53;0.50;99.90
13572;DHT22;6857;53.484;10.216;2024-01-07T07:32:18;0.50;99.90
13572;DHT22;6857;53.484;10.216;2024-01-07T07:34:44;0.50;99.90
13572;DHT22;6857;53.484;10.216;2024-01-07T07:37:09;0.50;99.90
13572;DHT22;6857;53.484;10.216;2024-01-07T07:39:35;0.40;99.90
13572;DHT22;6857;53.484;10.216;2024-01-07T07:42:01;0.40;99.90
13572;DHT22;6857;53.484;10.216;2024-01-07T07:44:27;0.40;99.90
13572;DHT22;6857;53.484;10.216;2024-01-07T07:46:52;0.40;99.90
13572;DHT22;6857;53.484;10.216;2024-01-07T07:49:18;0.40;99.90
13572;DHT22;6857;53.484;10.216;2024-01-07T07:51:43;0.30;99.90
13572;DHT22;6857;53.484;10.216;2024-01-07T07:54:09;0.30;99.90
13572;DHT22;6857;53.484;10.216;2024-01-07T07:56:34;0.30;99.90
13572;DHT22;6857;53.484;10.216;2024-01-07T07:59:04;0.20;99.90
13572;DHT22;6857;53.484;10.216;2024-01-07T08:01:29;0.20;99.90
13572;DHT22;6857;53.484;10.216;2024-01-07T08:03:55;0.20;99.90
13572;DHT22;6857;53.484;10.216;2024-01-07T08:06:20;0.10;99.90
13572;DHT22;6857;53.484;10.216;2024-01-07T08:08:46;0.10;99.90
13572;DHT22;6857;53.484;10.216;2024-01-07T08:11:12;0.10;99.90
13572;DHT22;6857;53.484;10.216;2024-01-07T08:13:38;0.00;99.90
13572;DHT22;6857;53.484;10.216;2024-01-07T08:16:04;0.00;99.90
13572;DHT22;6857;53.484;10.216;2024-01-07T08:18:31;0.00;99.90
13572;DHT22;6857;53.484;10.216;2024-01-07T08:20:56;0.00;99.90
13572;DHT22;6857;53.484;10.216;2024-01-07T08:23:23;-0.10;99.90
13572;DHT22;6857;53.484;10.216;2024-01-07T08:25:49;0.00;99.90
13572;DHT22;6857;53.484;10.216;2024-01-07T08:28:16;-0.10;99.90
13572;DHT22;6857;53.484;10.216;2024-01-07T08:30:42;-0.10;99.90
13572;DHT22;6857;53.484;10.216;2024-01-07T08:33:07;-0.10;99.90
13572;DHT22;6857;53.484;10.216;2024-01-07T08:35:33;-0.10;99.90
13572;DHT22;6857;53.484;10.216;2024-01-07T08:37:58;-0.10;99.90
13572;DHT22;6857;53.484;10.216;2024-01-07T08:40:24;-0.10;99.90
13572;DHT22;6857;53.484;10.216;2024-01-07T08:42:49;-0.10;99.90
13572;DHT22;6857;53.484;10.216;2024-01-07T08:45:15;-0.10;99.90
13572;DHT22;6857;53.484;10.216;2024-01-07T08:47:41;-0.10;99.90
13572;DHT22;6857;53.484;10.216;2024-01-07T08:50:06;-0.20;99.90
13572;DHT22;6857;53.484;10.216;2024-01-07T08:52:33;-0.20;99.90
13572;DHT22;6857;53.484;10.216;2024-01-07T08:55:01;-0.20;99.90
13572;DHT22;6857;53.484;10.216;2024-01-07T08:57:27;-0.20;99.90
13572;DHT22;6857;53.484;10.216;2024-01-07T08:59:52;-0.20;99.90
13572;DHT22;6857;53.484;10.216;2024-01-07T09:02:18;-0.10;99.90
13572;DHT22;6857;53.484;10.216;2024-01-07T09:04:43;-0.20;99.90
13572;DHT22;6857;53.484;10.216;2024-01-07T09:07:10;-0.20;99.90
13572;DHT22;6857;53.484;10.216;2024-01-07T09:09:35;-0.10;99.90
13572;DHT22;6857;53.484;10.216;2024-01-07T09:12:01;-0.10;99.90
13572;DHT22;6857;53.484;10.216;2024-01-07T09:14:26;-0.10;99.90
13572;DHT22;6857;53.484;10.216;2024-01-07T09:16:52;-0.10;99.90
13572;DHT22;6857;53.484;10.216;2024-01-07T09:19:18;-0.10;99.90
13572;DHT22;6857;53.484;10.216;2024-01-07T09:21:44;-0.20;99.90
13572;DHT22;6857;53.484;10.216;2024-01-07T09:24:10;-0.20;99.90
13572;DHT22;6857;53.484;10.216;2024-01-07T09:26:35;-0.10;99.90
13572;DHT22;6857;53.484;10.216;2024-01-07T09:29:01;-0.10;99.90
13572;DHT22;6857;53.484;10.216;2024-01-07T09:31:27;-0.10;99.90
13572;DHT22;6857;53.484;10.216;2024-01-07T09:33:52;-0.20;99.90
13572;DHT22;6857;53.484;10.216;2024-01-07T09:36:18;-0.20;99.90
13572;DHT22;6857;53.484;10.216;2024-01-07T09:38:44;-0.20;99.90
13572;DHT22;6857;53.484;10.216;2024-01-07T09:41:09;-0.10;99.90
13572;DHT22;6857;53.484;10.216;2024-01-07T09:43:35;-0.10;99.90
13572;DHT22;6857;53.484;10.216;2024-01-07T09:46:01;-0.10;99.90
13572;DHT22;6857;53.484;10.216;2024-01-07T09:48:27;-0.10;99.90
13572;DHT22;6857;53.484;10.216;2024-01-07T09:50:52;-0.10;99.90
13572;DHT22;6857;53.484;10.216;2024-01-07T09:53:20;-0.10;99.90
13572;DHT22;6857;53.484;10.216;2024-01-07T09:58:28;0.00;99.90
13572;DHT22;6857;53.484;10.216;2024-01-07T10:00:54;0.00;99.90
13572;DHT22;6857;53.484;10.216;2024-01-07T10:03:20;0.00;99.90
13572;DHT22;6857;53.484;10.216;2024-01-07T10:05:45;-0.10;99.90
13572;DHT22;6857;53.484;10.216;2024-01-07T10:08:11;0.00;99.90
13572;DHT22;6857;53.484;10.216;2024-01-07T10:10:36;-0.10;99.90
13572;DHT22;6857;53.484;10.216;2024-01-07T10:13:02;0.00;99.90
13572;DHT22;6857;53.484;10.216;2024-01-07T10:15:28;0.00;99.90
13572;DHT22;6857;53.484;10.216;2024-01-07T10:18:06;0.00;99.90
13572;DHT22;6857;53.484;10.216;2024-01-07T10:20:32;0.00;99.90
13572;DHT22;6857;53.484;10.216;2024-01-07T10:23:02;0.10;99.90
13572;DHT22;6857;53.484;10.216;2024-01-07T10:25:30;0.20;99.90
13572;DHT22;6857;53.484;10.216;2024-01-07T10:28:01;0.20;99.90
13572;DHT22;6857;53.484;10.216;2024-01-07T10:30:27;0.40;99.90
13572;DHT22;6857;53.484;10.216;2024-01-07T10:32:57;0.50;99.90
13572;DHT22;6857;53.484;10.216;2024-01-07T10:35:31;0.70;99.90
13572;DHT22;6857;53.484;10.216;2024-01-07T10:37:59;0.90;99.90
13572;DHT22;6857;53.484;10.216;2024-01-07T10:40:26;1.10;99.90
13572;DHT22;6857;53.484;10.216;2024-01-07T10:42:52;1.20;99.90
13572;DHT22;6857;53.484;10.216;2024-01-07T10:45:19;1.30;99.90
13572;DHT22;6857;53.484;10.216;2024-01-07T10:47:48;1.20;99.90
13572;DHT22;6857;53.484;10.216;2024-01-07T10:50:16;1.10;99.90
13572;DHT22;6857;53.484;10.216;2024-01-07T10:52:43;1.20;99.90
13572;DHT22;6857;53.484;10.216;2024-01-07T10:55:11;1.10;99.90
13572;DHT22;6857;53.484;10.216;2024-01-07T10:57:43;0.90;99.90
13572;DHT22;6857;53.484;10.216;2024-01-07T11:00:10;0.90;99.90
13572;DHT22;6857;53.484;10.216;2024-01-07T11:05:44;0.80;99.90
13572;DHT22;6857;53.484;10.216;2024-01-07T11:08:36;0.70;99.90
13572;DHT22;6857;53.484;10.216;2024-01-07T11:11:16;0.70;99.90
13572;DHT22;6857;53.484;10.216;2024-01-07T11:13:43;0.80;99.90
13572;DHT22;6857;53.484;10.216;2024-01-07T11:16:09;0.80;99.90
13572;DHT22;6857;53.484;10.216;2024-01-07T11:18:49;0.80;99.90
13572;DHT22;6857;53.484;10.216;2024-01-07T11:21:22;0.90;99.90
13572;DHT22;6857;53.484;10.216;2024-01-07T11:23:50;1.00;99.90
13572;DHT22;6857;53.484;10.216;2024-01-07T11:26:16;1.10;99.90
13572;DHT22;6857;53.484;10.216;2024-01-07T11:28:49;1.30;99.90
13572;DHT22;6857;53.484;10.216;2024-01-07T11:31:19;1.40;99.90
13572;DHT22;6857;53.484;10.216;2024-01-07T11:33:47;1.40;99.90
13572;DHT22;6857;53.484;10.216;2024-01-07T11:36:15;1.30;99.90
13572;DHT22;6857;53.484;10.216;2024-01-07T11:38:44;1.30;99.90
13572;DHT22;6857;53.484;10.216;2024-01-07T11:41:12;1.10;99.90
13572;DHT22;6857;53.484;10.216;2024-01-07T11:43:38;1.10;99.90
13572;DHT22;6857;53.484;10.216;2024-01-07T11:46:04;1.00;99.90
13572;DHT22;6857;53.484;10.216;2024-01-07T11:48:30;0.90;99.90
13572;DHT22;6857;53.484;10.216;2024-01-07T11:50:55;0.80;99.90
13572;DHT22;6857;53.484;10.216;2024-01-07T11:53:21;0.70;99.90
13572;DHT22;6857;53.484;10.216;2024-01-07T11:55:47;0.70;99.90
13572;DHT22;6857;53.484;10.216;2024-01-07T11:58:13;0.60;99.90
13572;DHT22;6857;53.484;10.216;2024-01-07T12:00:38;0.60;99.90
13572;DHT22;6857;53.484;10.216;2024-01-07T12:03:04;0.60;99.90
13572;DHT22;6857;53.484;10.216;2024-01-07T12:05:30;0.60;99.90
13572;DHT22;6857;53.484;10.216;2024-01-07T12:07:56;0.60;99.90
13572;DHT22;6857;53.484;10.216;2024-01-07T12:10:23;0.50;99.90
13572;DHT22;6857;53.484;10.216;2024-01-07T12:12:49;0.30;99.90
13572;DHT22;6857;53.484;10.216;2024-01-07T12:15:16;0.30;99.90
13572;DHT22;6857;53.484;10.216;2024-01-07T12:17:42;0.30;99.90
13572;DHT22;6857;53.484;10.216;2024-01-07T12:20:08;0.30;99.90
13572;DHT22;6857;53.484;10.216;2024-01-07T12:22:40;0.20;99.90
13572;DHT22;6857;53.484;10.216;2024-01-07T12:25:06;0.20;99.90
13572;DHT22;6857;53.484;10.216;2024-01-07T12:27:33;0.20;99.90
13572;DHT22;6857;53.484;10.216;2024-01-07T12:29:59;0.10;99.90
13572;DHT22;6857;53.484;10.216;2024-01-07T12:32:30;0.00;99.90
13572;DHT22;6857;53.484;10.216;2024-01-07T12:34:59;0.10;99.90
13572;DHT22;6857;53.484;10.216;2024-01-07T12:37:28;0.10;99.90
13572;DHT22;6857;53.484;10.216;2024-01-07T12:39:54;-0.30;99.90
13572;DHT22;6857;53.484;10.216;2024-01-07T12:42:20;0.00;99.90
13572;DHT22;6857;53.484;10.216;2024-01-07T12:44:48;0.00;99.90
13572;DHT22;6857;53.484;10.216;2024-01-07T12:47:16;0.00;99.90
13572;DHT22;6857;53.484;10.216;2024-01-07T12:49:42;-0.10;99.90
13572;DHT22;6857;53.484;10.216;2024-01-07T12:52:07;-0.10;99.90
13572;DHT22;6857;53.484;10.216;2024-01-07T12:54:34;0.00;99.90
13572;DHT22;6857;53.484;10.216;2024-01-07T12:57:00;0.30;99.90
13572;DHT22;6857;53.484;10.216;2024-01-07T12:59:25;0.60;99.90
13572;DHT22;6857;53.484;10.216;2024-01-07T13:01:51;0.70;99.90
13572;DHT22;6857;53.484;10.216;2024-01-07T13:04:17;0.50;99.90
13572;DHT22;6857;53.484;10.216;2024-01-07T13:06:43;0.50;99.90
13572;DHT22;6857;53.484;10.216;2024-01-07T13:09:08;0.60;99.90
13572;DHT22;6857;53.484;10.216;2024-01-07T13:11:34;0.80;99.90
13572;DHT22;6857;53.484;10.216;2024-01-07T13:14:00;0.90;99.90
13572;DHT22;6857;53.484;10.216;2024-01-07T13:16:27;0.90;99.90
13572;DHT22;6857;53.484;10.216;2024-01-07T13:18:53;0.80;99.90
13572;DHT22;6857;53.484;10.216;2024-01-07T13:21:19;0.70;99.90
13572;DHT22;6857;53.484;10.216;2024-01-07T13:23:45;0.80;99.90
13572;DHT22;6857;53.484;10.216;2024-01-07T13:26:11;0.60;99.90
13572;DHT22;6857;53.484;10.216;2024-01-07T13:28:37;0.60;99.90
13572;DHT22;6857;53.484;10.216;2024-01-07T13:31:02;0.60;99.90
13572;DHT22;6857;53.484;10.216;2024-01-07T13:33:29;0.60;99.90
13572;DHT22;6857;53.484;10.216;2024-01-07T13:35:55;0.70;99.90
13572;DHT22;6857;53.484;10.216;2024-01-07T13:38:20;0.60;99.90
13572;DHT22;6857;53.484;10.216;2024-01-07T13:40:47;0.70;99.90
13572;DHT22;6857;53.484;10.216;2024-01-07T13:43:12;0.80;99.90
13572;DHT22;6857;53.484;10.216;2024-01-07T13:45:38;0.90;99.90
13572;DHT22;6857;53.484;10.216;2024-01-07T13:48:04;1.00;99.90
13572;DHT22;6857;53.484;10.216;2024-01-07T13:50:30;0.90;99.90
13572;DHT22;6857;53.484;10.216;2024-01-07T13:52:55;0.70;99.90
13572;DHT22;6857;53.484;10.216;2024-01-07T13:55:21;0.70;99.90
13572;DHT22;6857;53.484;10.216;2024-01-07T13:57:46;0.80;99.90
13572;DHT22;6857;53.484;10.216;2024-01-07T14:00:12;0.80;99.90
13572;DHT22;6857;53.484;10.216;2024-01-07T14:02:43;0.60;99.90
13572;DHT22;6857;53.484;10.216;2024-01-07T14:05:11;0.40;99.90
13572;DHT22;6857;53.484;10.216;2024-01-07T14:07:40;0.30;99.90
13572;DHT22;6857;53.484;10.216;2024-01-07T14:10:07;0.10;99.90
13572;DHT22;6857;53.484;10.216;2024-01-07T14:12:34;0.00;99.90
13572;DHT22;6857;53.484;10.216;2024-01-07T14:14:59;-0.20;99.90
13572;DHT22;6857;53.484;10.216;2024-01-07T14:17:25;-0.30;99.90
13572;DHT22;6857;53.484;10.216;2024-01-07T14:19:51;-0.40;99.90
13572;DHT22;6857;53.484;10.216;2024-01-07T14:22:21;-0.50;99.90
13572;DHT22;6857;53.484;10.216;2024-01-07T14:24:47;-0.60;99.90
13572;DHT22;6857;53.484;10.216;2024-01-07T14:27:16;-0.70;99.90
13572;DHT22;6857;53.484;10.216;2024-01-07T14:29:42;-0.70;99.90
13572;DHT22;6857;53.484;10.216;2024-01-07T14:32:08;-0.70;99.90
13572;DHT22;6857;53.484;10.216;2024-01-07T14:34:34;-0.80;99.90
13572;DHT22;6857;53.484;10.216;2024-01-07T14:37:03;-0.90;99.90
13572;DHT22;6857;53.484;10.216;2024-01-07T14:39:28;-1.00;99.90
13572;DHT22;6857;53.484;10.216;2024-01-07T14:41:54;-1.00;99.90
13572;DHT22;6857;53.484;10.216;2024-01-07T14:44:20;-1.00;99.90
13572;DHT22;6857;53.484;10.216;2024-01-07T14:46:45;-1.10;99.90
13572;DHT22;6857;53.484;10.216;2024-01-07T14:49:11;-1.10;99.90
13572;DHT22;6857;53.484;10.216;2024-01-07T14:51:36;-1.10;99.90
13572;DHT22;6857;53.484;10.216;2024-01-07T14:54:02;-1.20;99.90
13572;DHT22;6857;53.484;10.216;2024-01-07T14:56:29;-1.30;99.90
13572;DHT22;6857;53.484;10.216;2024-01-07T14:58:54;-1.30;99.90
13572;DHT22;6857;53.484;10.216;2024-01-07T15:01:20;-1.30;99.90
13572;DHT22;6857;53.484;10.216;2024-01-07T15:03:46;-1.30;99.90
13572;DHT22;6857;53.484;10.216;2024-01-07T15:06:12;-1.30;99.90
13572;DHT22;6857;53.484;10.216;2024-01-07T15:08:40;-1.40;99.90
13572;DHT22;6857;53.484;10.216;2024-01-07T15:11:06;-1.40;99.90
13572;DHT22;6857;53.484;10.216;2024-01-07T15:13:32;-1.30;99.90
13572;DHT22;6857;53.484;10.216;2024-01-07T15:15:57;-1.40;99.90
13572;DHT22;6857;53.484;10.216;2024-01-07T15:18:23;-1.40;99.90
13572;DHT22;6857;53.484;10.216;2024-01-07T15:20:48;-1.50;99.90
13572;DHT22;6857;53.484;10.216;2024-01-07T15:23:14;-1.50;99.90
13572;DHT22;6857;53.484;10.216;2024-01-07T15:25:39;-1.60;99.90
13572;DHT22;6857;53.484;10.216;2024-01-07T15:28:05;-1.60;99.90
13572;DHT22;6857;53.484;10.216;2024-01-07T15:30:31;-1.50;99.90
13572;DHT22;6857;53.484;10.216;2024-01-07T15:32:57;-1.70;99.90
13572;DHT22;6857;53.484;10.216;2024-01-07T15:35:22;-1.70;99.90
13572;DHT22;6857;53.484;10.216;2024-01-07T15:37:48;-1.70;99.90